HVN1 VVCI-VVCA
Flight info
| Callsign | HVN1 |
|---|---|
| Flight time | 1h 2m |
| Altitude | 36000 |
| Route | LOCHA1C LOCHA Q10 VIDAD Q1 DAN DAN1G |
| Aircraft | A321/M-SDE2E3FGHIRWXY/LB1 |
Departure
| Time | 2026-04-11 15:34 |
|---|---|
| Airport | Cat Bi International Airport (VVCI) |
Arrival
| Time | 2026-04-11 16:36 |
|---|---|
| Airport | Chu Lai Airport (VVCA) |
| Time | Latitude | Longitude | Altitude | Speed | Heading |
|---|---|---|---|---|---|
| 2026-04-11 15:18 | 20.82146 | 106.72528 | 21 ft | 0 kts | 342° |
| 2026-04-11 15:23 | 20.82143 | 106.72529 | 21 ft | 0 kts | 342° |
| 2026-04-11 15:23 | 20.82129 | 106.72534 | 21 ft | 2 kts | 340° |
| 2026-04-11 15:23 | 20.82113 | 106.72540 | 21 ft | 2 kts | 337° |
| 2026-04-11 15:23 | 20.82099 | 106.72547 | 21 ft | 1 kts | 333° |
| 2026-04-11 15:24 | 20.82084 | 106.72555 | 21 ft | 2 kts | 324° |
| 2026-04-11 15:24 | 20.82073 | 106.72566 | 21 ft | 2 kts | 304° |
| 2026-04-11 15:24 | 20.82067 | 106.72579 | 21 ft | 2 kts | 265° |
| 2026-04-11 15:24 | 20.82070 | 106.72593 | 21 ft | 2 kts | 251° |
| 2026-04-11 15:25 | 20.82072 | 106.72598 | 21 ft | 0 kts | 251° |
| 2026-04-11 15:27 | 20.82069 | 106.72593 | 21 ft | 4 kts | 231° |
| 2026-04-11 15:28 | 20.82046 | 106.72536 | 21 ft | 11 kts | 252° |
| 2026-04-11 15:28 | 20.82023 | 106.72462 | 21 ft | 10 kts | 252° |
| 2026-04-11 15:28 | 20.82002 | 106.72388 | 21 ft | 11 kts | 253° |
| 2026-04-11 15:28 | 20.81975 | 106.72295 | 21 ft | 13 kts | 252° |
| 2026-04-11 15:29 | 20.81911 | 106.72241 | 21 ft | 12 kts | 178° |
| 2026-04-11 15:29 | 20.81828 | 106.72264 | 21 ft | 12 kts | 163° |
| 2026-04-11 15:29 | 20.81735 | 106.72295 | 21 ft | 15 kts | 168° |
| 2026-04-11 15:29 | 20.81670 | 106.72223 | 21 ft | 15 kts | 253° |
| 2026-04-11 15:30 | 20.81630 | 106.72092 | 21 ft | 21 kts | 252° |
| 2026-04-11 15:30 | 20.81588 | 106.71950 | 21 ft | 20 kts | 252° |
| 2026-04-11 15:30 | 20.81548 | 106.71813 | 21 ft | 19 kts | 252° |
| 2026-04-11 15:30 | 20.81509 | 106.71684 | 21 ft | 18 kts | 252° |
| 2026-04-11 15:31 | 20.81469 | 106.71551 | 21 ft | 21 kts | 252° |
| 2026-04-11 15:31 | 20.81424 | 106.71401 | 21 ft | 21 kts | 252° |
| 2026-04-11 15:31 | 20.81381 | 106.71258 | 21 ft | 20 kts | 252° |
| 2026-04-11 15:31 | 20.81340 | 106.71120 | 21 ft | 19 kts | 252° |
| 2026-04-11 15:32 | 20.81301 | 106.70989 | 21 ft | 18 kts | 252° |
| 2026-04-11 15:32 | 20.81325 | 106.70867 | 21 ft | 17 kts | 299° |
| 2026-04-11 15:32 | 20.81390 | 106.70850 | 21 ft | 10 kts | 66° |
| 2026-04-11 15:32 | 20.81351 | 106.70902 | 21 ft | 10 kts | 154° |
| 2026-04-11 15:33 | 20.81301 | 106.70940 | 21 ft | 8 kts | 118° |
| 2026-04-11 15:33 | 20.81310 | 106.71017 | 21 ft | 22 kts | 71° |
| 2026-04-11 15:33 | 20.81424 | 106.71401 | 21 ft | 88 kts | 73° |
| 2026-04-11 15:33 | 20.81676 | 106.72237 | 22 ft | 147 kts | 72° |
| 2026-04-11 15:34 | 20.82028 | 106.73366 | 424 ft | 166 kts | 70° |
| 2026-04-11 15:34 | 20.82414 | 106.74510 | 1180 ft | 168 kts | 73° |
| 2026-04-11 15:34 | 20.82441 | 106.75744 | 1837 ft | 171 kts | 109° |
| 2026-04-11 15:34 | 20.81815 | 106.76819 | 2211 ft | 176 kts | 132° |
| 2026-04-11 15:35 | 20.80953 | 106.77834 | 2385 ft | 192 kts | 136° |
| 2026-04-11 15:35 | 20.79994 | 106.78939 | 2599 ft | 212 kts | 136° |
| 2026-04-11 15:35 | 20.78944 | 106.80143 | 2828 ft | 232 kts | 137° |
| 2026-04-11 15:35 | 20.77805 | 106.81449 | 3172 ft | 248 kts | 137° |
| 2026-04-11 15:36 | 20.76594 | 106.82838 | 3630 ft | 258 kts | 137° |
| 2026-04-11 15:36 | 20.75353 | 106.84260 | 4164 ft | 265 kts | 138° |
| 2026-04-11 15:36 | 20.74084 | 106.85715 | 4727 ft | 270 kts | 138° |
| 2026-04-11 15:36 | 20.72790 | 106.87198 | 5294 ft | 275 kts | 139° |
| 2026-04-11 15:37 | 20.71470 | 106.88711 | 5873 ft | 279 kts | 139° |
| 2026-04-11 15:37 | 20.70136 | 106.90239 | 6457 ft | 284 kts | 139° |
| 2026-04-11 15:37 | 20.68779 | 106.91794 | 7050 ft | 288 kts | 139° |
| 2026-04-11 15:37 | 20.67401 | 106.93367 | 7647 ft | 292 kts | 140° |
| 2026-04-11 15:38 | 20.65808 | 106.94676 | 8225 ft | 286 kts | 159° |
| 2026-04-11 15:38 | 20.63934 | 106.95241 | 8826 ft | 280 kts | 178° |
| 2026-04-11 15:38 | 20.61983 | 106.95332 | 9430 ft | 281 kts | 185° |
| 2026-04-11 15:38 | 20.60008 | 106.95266 | 10027 ft | 285 kts | 187° |
| 2026-04-11 15:39 | 20.58026 | 106.95141 | 10580 ft | 293 kts | 188° |
| 2026-04-11 15:39 | 20.55934 | 106.95013 | 10890 ft | 310 kts | 187° |
| 2026-04-11 15:39 | 20.53729 | 106.94886 | 11127 ft | 328 kts | 187° |
| 2026-04-11 15:39 | 20.51392 | 106.94759 | 11361 ft | 346 kts | 186° |
| 2026-04-11 15:40 | 20.48948 | 106.94632 | 11699 ft | 358 kts | 186° |
| 2026-04-11 15:40 | 20.46421 | 106.94506 | 12218 ft | 365 kts | 186° |
| 2026-04-11 15:40 | 20.43874 | 106.94382 | 12862 ft | 367 kts | 186° |
| 2026-04-11 15:40 | 20.41342 | 106.94262 | 13497 ft | 370 kts | 186° |
| 2026-04-11 15:41 | 20.38756 | 106.94140 | 14129 ft | 373 kts | 186° |
| 2026-04-11 15:41 | 20.36159 | 106.94019 | 14748 ft | 376 kts | 186° |
| 2026-04-11 15:41 | 20.33518 | 106.93897 | 15355 ft | 379 kts | 186° |
| 2026-04-11 15:41 | 20.30878 | 106.93775 | 15951 ft | 382 kts | 187° |
| 2026-04-11 15:42 | 20.28209 | 106.93652 | 16519 ft | 385 kts | 187° |
| 2026-04-11 15:42 | 20.25525 | 106.93529 | 17070 ft | 387 kts | 187° |
| 2026-04-11 15:42 | 20.23741 | 106.93447 | 17433 ft | 389 kts | 187° |
| 2026-04-11 15:43 | 20.17390 | 106.93157 | 18584 ft | 396 kts | 187° |
| 2026-04-11 15:43 | 20.15517 | 106.93072 | 18896 ft | 399 kts | 187° |
| 2026-04-11 15:43 | 20.12748 | 106.92945 | 19359 ft | 401 kts | 186° |
| 2026-04-11 15:43 | 20.09931 | 106.92817 | 19812 ft | 404 kts | 186° |
| 2026-04-11 15:44 | 20.07104 | 106.92689 | 20241 ft | 408 kts | 186° |
| 2026-04-11 15:44 | 20.04261 | 106.92559 | 20666 ft | 410 kts | 186° |
| 2026-04-11 15:44 | 20.01439 | 106.92431 | 21066 ft | 413 kts | 186° |
| 2026-04-11 15:44 | 19.98512 | 106.92298 | 21469 ft | 417 kts | 185° |
| 2026-04-11 15:45 | 19.95654 | 106.92168 | 21807 ft | 420 kts | 185° |
| 2026-04-11 15:45 | 19.92668 | 106.92032 | 22195 ft | 423 kts | 185° |
| 2026-04-11 15:45 | 19.89724 | 106.91899 | 22576 ft | 425 kts | 185° |
| 2026-04-11 15:45 | 19.86783 | 106.91765 | 22933 ft | 428 kts | 185° |
| 2026-04-11 15:46 | 19.83799 | 106.91630 | 23288 ft | 430 kts | 185° |
| 2026-04-11 15:46 | 19.80791 | 106.91494 | 23629 ft | 433 kts | 185° |
| 2026-04-11 15:46 | 19.77777 | 106.91357 | 23961 ft | 435 kts | 184° |
| 2026-04-11 15:46 | 19.74740 | 106.91219 | 24287 ft | 437 kts | 184° |
| 2026-04-11 15:47 | 19.71682 | 106.91081 | 24638 ft | 439 kts | 184° |
| 2026-04-11 15:47 | 19.68629 | 106.90943 | 24976 ft | 440 kts | 184° |
| 2026-04-11 15:47 | 19.65560 | 106.90804 | 25297 ft | 442 kts | 184° |
| 2026-04-11 15:47 | 19.62491 | 106.90665 | 25590 ft | 444 kts | 184° |
| 2026-04-11 15:48 | 19.59389 | 106.90525 | 25913 ft | 446 kts | 184° |
| 2026-04-11 15:48 | 19.56277 | 106.90384 | 26201 ft | 448 kts | 184° |
| 2026-04-11 15:48 | 19.53197 | 106.90245 | 26484 ft | 449 kts | 184° |
| 2026-04-11 15:48 | 19.50073 | 106.90104 | 26763 ft | 451 kts | 184° |
| 2026-04-11 15:49 | 19.46921 | 106.89962 | 27048 ft | 453 kts | 184° |
| 2026-04-11 15:49 | 19.43762 | 106.89819 | 27316 ft | 455 kts | 184° |
| 2026-04-11 15:49 | 19.40594 | 106.89676 | 27577 ft | 456 kts | 184° |
| 2026-04-11 15:49 | 19.37412 | 106.89533 | 27836 ft | 458 kts | 184° |
| 2026-04-11 15:50 | 19.34225 | 106.89389 | 28073 ft | 460 kts | 184° |
| 2026-04-11 15:50 | 19.31021 | 106.89246 | 28310 ft | 462 kts | 184° |
| 2026-04-11 15:50 | 19.27791 | 106.89099 | 28568 ft | 463 kts | 184° |
| 2026-04-11 15:50 | 19.24602 | 106.88956 | 28820 ft | 464 kts | 184° |
| 2026-04-11 15:51 | 19.21361 | 106.88810 | 29045 ft | 466 kts | 184° |
| 2026-04-11 15:51 | 19.18102 | 106.88663 | 29274 ft | 468 kts | 184° |
| 2026-04-11 15:51 | 19.14842 | 106.88516 | 29498 ft | 469 kts | 184° |
| 2026-04-11 15:51 | 19.11570 | 106.88369 | 29715 ft | 470 kts | 184° |
| 2026-04-11 15:52 | 19.08339 | 106.88223 | 30015 ft | 470 kts | 184° |
| 2026-04-11 15:52 | 19.05076 | 106.88077 | 30365 ft | 468 kts | 184° |
| 2026-04-11 15:52 | 19.01824 | 106.87931 | 30682 ft | 467 kts | 184° |
| 2026-04-11 15:52 | 18.98578 | 106.87785 | 31010 ft | 467 kts | 184° |
| 2026-04-11 15:53 | 18.95322 | 106.87639 | 31332 ft | 466 kts | 184° |
| 2026-04-11 15:53 | 18.92128 | 106.87496 | 31646 ft | 465 kts | 184° |
| 2026-04-11 15:53 | 18.88903 | 106.87408 | 31941 ft | 466 kts | 180° |
| 2026-04-11 15:53 | 18.85569 | 106.87760 | 32281 ft | 466 kts | 172° |
| 2026-04-11 15:54 | 18.82462 | 106.88566 | 32565 ft | 468 kts | 164° |
| 2026-04-11 15:54 | 18.79379 | 106.89723 | 32900 ft | 468 kts | 160° |
| 2026-04-11 15:54 | 18.76373 | 106.91044 | 33258 ft | 467 kts | 158° |
| 2026-04-11 15:54 | 18.73405 | 106.92448 | 33568 ft | 466 kts | 157° |
| 2026-04-11 15:55 | 18.70444 | 106.93841 | 33890 ft | 465 kts | 158° |
| 2026-04-11 15:55 | 18.67486 | 106.95224 | 34215 ft | 464 kts | 158° |
| 2026-04-11 15:55 | 18.64532 | 106.96601 | 34536 ft | 463 kts | 158° |
| 2026-04-11 15:55 | 18.61587 | 106.97971 | 34860 ft | 462 kts | 158° |
| 2026-04-11 15:56 | 18.58663 | 106.99331 | 35146 ft | 462 kts | 158° |
| 2026-04-11 15:56 | 18.55759 | 107.00679 | 35479 ft | 460 kts | 158° |
| 2026-04-11 15:56 | 18.52771 | 107.02067 | 35743 ft | 461 kts | 158° |
| 2026-04-11 15:57 | 18.46896 | 107.04794 | 35759 ft | 462 kts | 158° |
| 2026-04-11 15:57 | 18.41030 | 107.07519 | 35765 ft | 459 kts | 158° |
| 2026-04-11 15:58 | 18.35186 | 107.10237 | 35767 ft | 460 kts | 158° |
| 2026-04-11 15:58 | 18.29321 | 107.12964 | 35773 ft | 460 kts | 158° |
| 2026-04-11 15:59 | 18.23511 | 107.15659 | 35787 ft | 460 kts | 158° |
| 2026-04-11 15:59 | 18.17613 | 107.18392 | 35793 ft | 459 kts | 158° |
| 2026-04-11 16:00 | 18.11789 | 107.21088 | 35793 ft | 459 kts | 158° |
| 2026-04-11 16:00 | 18.05924 | 107.23808 | 35794 ft | 460 kts | 157° |
| 2026-04-11 16:01 | 18.00098 | 107.26578 | 35795 ft | 460 kts | 157° |
| 2026-04-11 16:01 | 17.94309 | 107.29327 | 35795 ft | 459 kts | 156° |
| 2026-04-11 16:02 | 17.88479 | 107.32093 | 35795 ft | 459 kts | 156° |
| 2026-04-11 16:02 | 17.82655 | 107.34854 | 35796 ft | 459 kts | 156° |
| 2026-04-11 16:03 | 17.76828 | 107.37614 | 35796 ft | 459 kts | 156° |
| 2026-04-11 16:03 | 17.71840 | 107.39984 | 35796 ft | 459 kts | 156° |
| 2026-04-11 16:04 | 17.66873 | 107.42340 | 35785 ft | 459 kts | 156° |
| 2026-04-11 16:04 | 17.61049 | 107.45097 | 35795 ft | 459 kts | 156° |
| 2026-04-11 16:05 | 17.55260 | 107.47835 | 35795 ft | 459 kts | 156° |
| 2026-04-11 16:05 | 17.49428 | 107.50591 | 35795 ft | 458 kts | 156° |
| 2026-04-11 16:06 | 17.40698 | 107.54718 | 35795 ft | 459 kts | 156° |
| 2026-04-11 16:06 | 17.34926 | 107.57444 | 35796 ft | 458 kts | 156° |
| 2026-04-11 16:07 | 17.29148 | 107.60166 | 35796 ft | 458 kts | 156° |
| 2026-04-11 16:07 | 17.23291 | 107.62923 | 35795 ft | 458 kts | 156° |
| 2026-04-11 16:08 | 17.17481 | 107.65656 | 35795 ft | 457 kts | 156° |
| 2026-04-11 16:08 | 17.11682 | 107.68391 | 35798 ft | 458 kts | 156° |
| 2026-04-11 16:09 | 17.06058 | 107.71127 | 35799 ft | 458 kts | 155° |
| 2026-04-11 16:09 | 17.00394 | 107.73877 | 35798 ft | 457 kts | 155° |
| 2026-04-11 16:10 | 16.94631 | 107.76682 | 35797 ft | 457 kts | 155° |
| 2026-04-11 16:10 | 16.88854 | 107.79484 | 35797 ft | 458 kts | 155° |
| 2026-04-11 16:11 | 16.83077 | 107.82280 | 35790 ft | 457 kts | 155° |
| 2026-04-11 16:11 | 16.80179 | 107.83682 | 35442 ft | 459 kts | 155° |
| 2026-04-11 16:11 | 16.78554 | 107.84469 | 35159 ft | 457 kts | 155° |
| 2026-04-11 16:12 | 16.77980 | 107.84746 | 35029 ft | 457 kts | 155° |
| 2026-04-11 16:12 | 16.77025 | 107.85209 | 34781 ft | 457 kts | 155° |
| 2026-04-11 16:12 | 16.75876 | 107.85765 | 34430 ft | 458 kts | 155° |
| 2026-04-11 16:12 | 16.74338 | 107.86512 | 33886 ft | 462 kts | 155° |
| 2026-04-11 16:13 | 16.72204 | 107.87556 | 33027 ft | 468 kts | 155° |
| 2026-04-11 16:13 | 16.68199 | 107.89410 | 32333 ft | 460 kts | 154° |
| 2026-04-11 16:13 | 16.65359 | 107.90841 | 32082 ft | 449 kts | 155° |
| 2026-04-11 16:13 | 16.62574 | 107.92200 | 31709 ft | 443 kts | 155° |
| 2026-04-11 16:14 | 16.60454 | 107.93230 | 31333 ft | 440 kts | 155° |
| 2026-04-11 16:14 | 16.58536 | 107.94158 | 30991 ft | 438 kts | 155° |
| 2026-04-11 16:14 | 16.54880 | 107.95926 | 30337 ft | 434 kts | 155° |
| 2026-04-11 16:14 | 16.53081 | 107.96798 | 30017 ft | 432 kts | 155° |
| 2026-04-11 16:15 | 16.50358 | 107.98110 | 29530 ft | 429 kts | 155° |
| 2026-04-11 16:15 | 16.47656 | 107.99413 | 29052 ft | 426 kts | 155° |
| 2026-04-11 16:15 | 16.44107 | 108.01123 | 28420 ft | 422 kts | 155° |
| 2026-04-11 16:15 | 16.42336 | 108.01976 | 28101 ft | 420 kts | 155° |
| 2026-04-11 16:16 | 16.39654 | 108.03269 | 27622 ft | 417 kts | 155° |
| 2026-04-11 16:16 | 16.37027 | 108.04534 | 27149 ft | 415 kts | 155° |
| 2026-04-11 16:16 | 16.34448 | 108.05778 | 26682 ft | 412 kts | 155° |
| 2026-04-11 16:16 | 16.31881 | 108.07021 | 26217 ft | 409 kts | 155° |
| 2026-04-11 16:17 | 16.29278 | 108.08278 | 25742 ft | 407 kts | 155° |
| 2026-04-11 16:17 | 16.26712 | 108.09515 | 25274 ft | 404 kts | 155° |
| 2026-04-11 16:17 | 16.24168 | 108.10739 | 24809 ft | 401 kts | 155° |
| 2026-04-11 16:17 | 16.21665 | 108.11944 | 24349 ft | 399 kts | 155° |
| 2026-04-11 16:18 | 16.19145 | 108.13155 | 23882 ft | 396 kts | 155° |
| 2026-04-11 16:18 | 16.16646 | 108.14356 | 23421 ft | 394 kts | 155° |
| 2026-04-11 16:18 | 16.14166 | 108.15548 | 22959 ft | 392 kts | 155° |
| 2026-04-11 16:18 | 16.11695 | 108.16736 | 22494 ft | 389 kts | 156° |
| 2026-04-11 16:19 | 16.09243 | 108.17914 | 22033 ft | 387 kts | 156° |
| 2026-04-11 16:19 | 16.06810 | 108.19097 | 21571 ft | 386 kts | 154° |
| 2026-04-11 16:19 | 16.04521 | 108.20446 | 21119 ft | 384 kts | 148° |
| 2026-04-11 16:19 | 16.02311 | 108.22064 | 20650 ft | 383 kts | 144° |
| 2026-04-11 16:20 | 16.00195 | 108.23764 | 20190 ft | 381 kts | 143° |
| 2026-04-11 16:20 | 15.98103 | 108.25456 | 19734 ft | 379 kts | 143° |
| 2026-04-11 16:20 | 15.96016 | 108.27132 | 19279 ft | 378 kts | 143° |
| 2026-04-11 16:20 | 15.93937 | 108.28791 | 18828 ft | 376 kts | 143° |
| 2026-04-11 16:21 | 15.91893 | 108.30417 | 18383 ft | 375 kts | 144° |
| 2026-04-11 16:21 | 15.89809 | 108.32071 | 17929 ft | 373 kts | 144° |
| 2026-04-11 16:21 | 15.87753 | 108.33702 | 17483 ft | 372 kts | 144° |
| 2026-04-11 16:21 | 15.85707 | 108.35334 | 17038 ft | 370 kts | 143° |
| 2026-04-11 16:22 | 15.83665 | 108.36960 | 16596 ft | 368 kts | 143° |
| 2026-04-11 16:22 | 15.81633 | 108.38570 | 16156 ft | 366 kts | 143° |
| 2026-04-11 16:22 | 15.79605 | 108.40175 | 15717 ft | 365 kts | 143° |
| 2026-04-11 16:22 | 15.77617 | 108.41748 | 15287 ft | 363 kts | 143° |
| 2026-04-11 16:23 | 15.75611 | 108.43334 | 14852 ft | 361 kts | 143° |
| 2026-04-11 16:23 | 15.73621 | 108.44908 | 14422 ft | 359 kts | 143° |
| 2026-04-11 16:23 | 15.71653 | 108.46463 | 13997 ft | 357 kts | 143° |
| 2026-04-11 16:23 | 15.69661 | 108.48036 | 13561 ft | 356 kts | 143° |
| 2026-04-11 16:24 | 15.67697 | 108.49588 | 13135 ft | 354 kts | 143° |
| 2026-04-11 16:24 | 15.65762 | 108.51115 | 12613 ft | 354 kts | 143° |
| 2026-04-11 16:24 | 15.63802 | 108.52666 | 12162 ft | 353 kts | 142° |
| 2026-04-11 16:24 | 15.62055 | 108.54356 | 11922 ft | 346 kts | 132° |
| 2026-04-11 16:25 | 15.60683 | 108.56415 | 11618 ft | 343 kts | 119° |
| 2026-04-11 16:25 | 15.59574 | 108.58611 | 11286 ft | 339 kts | 118° |
| 2026-04-11 16:25 | 15.58507 | 108.60770 | 10999 ft | 334 kts | 117° |
| 2026-04-11 16:25 | 15.57469 | 108.62911 | 10719 ft | 329 kts | 117° |
| 2026-04-11 16:26 | 15.56445 | 108.65015 | 10446 ft | 324 kts | 117° |
| 2026-04-11 16:26 | 15.55452 | 108.67057 | 10182 ft | 319 kts | 118° |
| 2026-04-11 16:26 | 15.54453 | 108.69113 | 9916 ft | 315 kts | 118° |
| 2026-04-11 16:26 | 15.53476 | 108.71121 | 9765 ft | 306 kts | 118° |
| 2026-04-11 16:27 | 15.52533 | 108.73057 | 9744 ft | 294 kts | 118° |
| 2026-04-11 16:27 | 15.51625 | 108.74924 | 9677 ft | 284 kts | 118° |
| 2026-04-11 16:27 | 15.50741 | 108.76681 | 9611 ft | 273 kts | 122° |
| 2026-04-11 16:27 | 15.49648 | 108.78236 | 9546 ft | 262 kts | 132° |
| 2026-04-11 16:28 | 15.48421 | 108.79627 | 9437 ft | 254 kts | 135° |
| 2026-04-11 16:28 | 15.47202 | 108.80908 | 9217 ft | 251 kts | 136° |
| 2026-04-11 16:28 | 15.45972 | 108.82188 | 8951 ft | 250 kts | 136° |
| 2026-04-11 16:28 | 15.44771 | 108.83441 | 8698 ft | 248 kts | 136° |
| 2026-04-11 16:29 | 15.43550 | 108.84716 | 8438 ft | 246 kts | 136° |
| 2026-04-11 16:29 | 15.42343 | 108.85976 | 8009 ft | 241 kts | 136° |
| 2026-04-11 16:29 | 15.41175 | 108.87196 | 7505 ft | 241 kts | 136° |
| 2026-04-11 16:29 | 15.40026 | 108.88397 | 7044 ft | 239 kts | 136° |
| 2026-04-11 16:30 | 15.38838 | 108.89638 | 6572 ft | 236 kts | 136° |
| 2026-04-11 16:30 | 15.37686 | 108.90842 | 6103 ft | 233 kts | 136° |
| 2026-04-11 16:30 | 15.36535 | 108.92016 | 5632 ft | 231 kts | 140° |
| 2026-04-11 16:30 | 15.35152 | 108.92789 | 5228 ft | 225 kts | 171° |
| 2026-04-11 16:31 | 15.33620 | 108.92566 | 4830 ft | 228 kts | 207° |
| 2026-04-11 16:31 | 15.32483 | 108.91451 | 4531 ft | 227 kts | 232° |
| 2026-04-11 16:31 | 15.31554 | 108.90141 | 4240 ft | 224 kts | 229° |
| 2026-04-11 16:31 | 15.30522 | 108.88950 | 3959 ft | 219 kts | 224° |
| 2026-04-11 16:32 | 15.29471 | 108.87871 | 3700 ft | 208 kts | 222° |
| 2026-04-11 16:32 | 15.28568 | 108.86758 | 3450 ft | 203 kts | 238° |
| 2026-04-11 16:32 | 15.28242 | 108.85376 | 3346 ft | 206 kts | 266° |
| 2026-04-11 16:32 | 15.28613 | 108.83928 | 3153 ft | 205 kts | 292° |
| 2026-04-11 16:33 | 15.29386 | 108.82704 | 2893 ft | 203 kts | 304° |
| 2026-04-11 16:33 | 15.30265 | 108.81566 | 2624 ft | 199 kts | 306° |
| 2026-04-11 16:33 | 15.31026 | 108.80632 | 2401 ft | 195 kts | 308° |
| 2026-04-11 16:33 | 15.31833 | 108.79736 | 2173 ft | 191 kts | 310° |
| 2026-04-11 16:34 | 15.32773 | 108.78770 | 1921 ft | 186 kts | 313° |
| 2026-04-11 16:34 | 15.33668 | 108.77843 | 1713 ft | 175 kts | 312° |
| 2026-04-11 16:34 | 15.34499 | 108.76977 | 1456 ft | 168 kts | 312° |
| 2026-04-11 16:34 | 15.35312 | 108.76126 | 1232 ft | 164 kts | 313° |
| 2026-04-11 16:35 | 15.36111 | 108.75291 | 1019 ft | 162 kts | 313° |
| 2026-04-11 16:35 | 15.36897 | 108.74467 | 801 ft | 159 kts | 313° |
| 2026-04-11 16:35 | 15.37672 | 108.73657 | 597 ft | 159 kts | 314° |
| 2026-04-11 16:35 | 15.38451 | 108.72842 | 388 ft | 159 kts | 314° |
| 2026-04-11 16:36 | 15.39233 | 108.72017 | 175 ft | 158 kts | 314° |
| 2026-04-11 16:36 | 15.40003 | 108.71218 | 44 ft | 151 kts | 315° |
| 2026-04-11 16:36 | 15.40614 | 108.70578 | 41 ft | 95 kts | 315° |
| 2026-04-11 16:36 | 15.40926 | 108.70253 | 41 ft | 31 kts | 314° |
| 2026-04-11 16:37 | 15.41120 | 108.70159 | 41 ft | 28 kts | 347° |
| 2026-04-11 16:37 | 15.41243 | 108.70129 | 41 ft | 10 kts | 348° |
| 2026-04-11 16:37 | 15.41309 | 108.70113 | 41 ft | 6 kts | 343° |
| 2026-04-11 16:37 | 15.41324 | 108.70111 | 41 ft | 3 kts | 9° |
| 2026-04-11 16:38 | 15.41333 | 108.70114 | 41 ft | 0 kts | 20° |
| 2026-04-11 16:38 | 15.41357 | 108.70130 | 41 ft | 7 kts | 40° |
| 2026-04-11 16:38 | 15.41375 | 108.70150 | 41 ft | 3 kts | 48° |
| 2026-04-11 16:38 | 15.41398 | 108.70178 | 41 ft | 10 kts | 47° |
| 2026-04-11 16:39 | 15.41433 | 108.70214 | 41 ft | 4 kts | 46° |
| 2026-04-11 16:39 | 15.41438 | 108.70239 | 41 ft | 4 kts | 122° |
| 2026-04-11 16:39 | 15.41422 | 108.70260 | 41 ft | 4 kts | 138° |
| 2026-04-11 16:39 | 15.41415 | 108.70268 | 41 ft | 0 kts | 134° |
| 2026-04-11 16:40 | 15.41414 | 108.70268 | 41 ft | 0 kts | 134° |